createdAt,value
2024-05-09T00:03:15.820Z,360
2024-05-09T00:05:17.261Z,360
2024-05-09T00:09:20.061Z,360
2024-05-09T00:15:24.214Z,360
2024-05-09T00:21:28.867Z,360
2024-05-09T00:25:31.273Z,360
2024-05-09T00:31:34.935Z,360
2024-05-09T00:35:37.710Z,360
2024-05-09T00:37:39.108Z,360
2024-05-09T00:41:42.369Z,360
2024-05-09T00:45:45.773Z,360
2024-05-09T00:47:47.724Z,360
2024-05-09T00:51:50.739Z,360
2024-05-09T00:57:54.813Z,360
2024-05-09T01:03:59.580Z,360
2024-05-09T01:08:03.023Z,360
2024-05-09T01:14:07.370Z,360
2024-05-09T01:18:10.994Z,360
2024-05-09T01:20:19.554Z,360
2024-05-09T01:24:14.096Z,360
2024-05-09T01:28:16.635Z,360
2024-05-09T01:30:21.216Z,360
2024-05-09T01:34:20.925Z,360
2024-05-09T01:40:28.919Z,360
2024-05-09T01:44:27.422Z,360
2024-05-09T01:46:29.233Z,360
2024-05-09T01:56:35.741Z,360
2024-05-09T01:58:37.423Z,360
2024-05-09T02:02:40.297Z,360
2024-05-09T02:06:44.055Z,360
2024-05-09T02:12:48.623Z,360
2024-05-09T02:16:52.032Z,360
2024-05-09T02:18:53.326Z,360
2024-05-09T02:22:57.088Z,360
2024-05-09T02:26:59.970Z,360
2024-05-09T02:29:01.795Z,360
2024-05-09T02:33:04.337Z,360
2024-05-09T02:39:08.795Z,360
2024-05-09T02:45:13.789Z,360
2024-05-09T02:49:16.429Z,360
2024-05-09T02:55:20.968Z,360
2024-05-09T02:59:24.675Z,360
2024-05-09T03:01:25.727Z,360
2024-05-09T03:05:28.043Z,360
2024-05-09T03:09:31.689Z,360
2024-05-09T03:11:32.715Z,360
2024-05-09T03:15:35.678Z,360
2024-05-09T03:21:40.470Z,360
2024-05-09T03:25:43.536Z,360
2024-05-09T03:27:45.433Z,360
2024-05-09T03:31:48.555Z,360
2024-05-09T03:37:52.792Z,360
2024-05-09T03:41:55.351Z,360
2024-05-09T03:43:57.074Z,360
2024-05-09T03:47:59.987Z,360
2024-05-09T03:52:03.260Z,360
2024-05-09T03:54:04.691Z,360
2024-05-09T03:58:07.174Z,360
2024-05-09T04:04:11.487Z,360
2024-05-09T04:08:15.681Z,360
2024-05-09T04:10:20.773Z,360
2024-05-09T04:14:19.553Z,360
2024-05-09T04:20:29.149Z,360
2024-05-09T04:24:26.992Z,360
2024-05-09T04:26:28.624Z,360
2024-05-09T04:30:36.238Z,360
2024-05-09T04:34:35.332Z,360
2024-05-09T04:36:36.550Z,360
2024-05-09T04:40:39.846Z,360
2024-05-09T04:42:41.296Z,360
2024-05-09T04:46:44.251Z,360
2024-05-09T04:52:48.774Z,360
2024-05-09T04:56:52.214Z,360
2024-05-09T04:58:54.048Z,360
2024-05-09T05:02:56.525Z,360
2024-05-09T05:07:02.060Z,360
2024-05-09T05:09:01.455Z,360
2024-05-09T05:13:03.760Z,360
2024-05-09T05:20:00.818Z,360
2024-05-09T05:24:03.722Z,360
2024-05-09T05:26:05.681Z,360
2024-05-09T05:30:11.998Z,360
2024-05-09T05:34:11.573Z,360
2024-05-09T05:36:12.916Z,360
2024-05-09T05:40:24.581Z,360
2024-05-09T05:44:19.030Z,360
2024-05-09T05:46:20.007Z,360
2024-05-09T05:50:27.218Z,360
2024-05-09T05:56:26.926Z,360
2024-05-09T06:02:31.689Z,360
2024-05-09T06:06:34.420Z,360
2024-05-09T06:12:38.477Z,360
2024-05-09T06:16:40.538Z,360
2024-05-09T06:18:42.306Z,360
2024-05-09T06:22:44.326Z,360
2024-05-09T06:26:47.160Z,360
2024-05-09T06:28:48.654Z,360
2024-05-09T06:32:51.534Z,360
2024-05-09T06:36:53.494Z,360
2024-05-09T06:38:55.200Z,360
2024-05-09T06:42:57.856Z,360
2024-05-09T06:44:58.802Z,360
2024-05-09T06:49:02.333Z,359
2024-05-09T06:55:06.375Z,357
2024-05-09T07:01:10.807Z,349
2024-05-09T07:05:14.034Z,349
2024-05-09T07:09:17.195Z,349
2024-05-09T07:11:18.505Z,349
2024-05-09T07:15:21.594Z,349
2024-05-09T07:19:23.907Z,349
2024-05-09T07:21:24.972Z,349
2024-05-09T07:25:27.852Z,333
2024-05-09T07:27:29.542Z,333
2024-05-09T07:29:31.269Z,332
2024-05-09T07:31:32.282Z,332
2024-05-09T07:37:36.519Z,142
2024-05-09T07:39:37.627Z,142
2024-05-09T07:43:40.331Z,284
2024-05-09T07:53:49.050Z,193
2024-05-09T07:57:49.410Z,167
2024-05-09T07:59:50.328Z,167
2024-05-09T08:03:53.037Z,135
2024-05-09T08:07:56.126Z,199
2024-05-09T08:09:57.281Z,183
2024-05-09T08:13:59.887Z,184
2024-05-09T08:20:05.032Z,184
2024-05-09T08:24:06.337Z,164
2024-05-09T08:26:07.215Z,176
2024-05-09T08:30:12.608Z,176
2024-05-09T08:36:12.150Z,99
2024-05-09T08:40:19.725Z,99
2024-05-09T08:42:15.378Z,85
2024-05-09T08:46:17.877Z,65
2024-05-09T08:52:20.883Z,102
2024-05-09T08:56:23.468Z,135
2024-05-09T08:58:24.791Z,144
2024-05-09T09:02:26.940Z,125
2024-05-09T09:06:30.077Z,74
2024-05-09T09:08:31.449Z,97
2024-05-09T09:12:34.010Z,91
2024-05-09T09:18:37.672Z,50
2024-05-09T09:24:41.859Z,152
2024-05-09T09:28:44.665Z,106
2024-05-09T09:34:48.717Z,117
2024-05-09T09:38:51.369Z,100
2024-05-09T09:40:52.588Z,98
2024-05-09T09:45:01.586Z,82
2024-05-09T09:48:57.418Z,102
2024-05-09T09:50:58.308Z,128
2024-05-09T09:55:00.970Z,46
2024-05-09T10:01:04.981Z,70
2024-05-09T10:05:08.181Z,128
2024-05-09T10:07:09.446Z,105
2024-05-09T10:11:11.175Z,97
2024-05-09T10:17:15.065Z,135
2024-05-09T10:23:20.034Z,102
2024-05-09T10:27:23.288Z,26
2024-05-09T10:33:27.669Z,132
2024-05-09T10:37:30.407Z,314
2024-05-09T10:39:31.165Z,348
2024-05-09T10:43:34.038Z,335
2024-05-09T10:47:36.430Z,86
2024-05-09T10:49:37.489Z,88
2024-05-09T10:53:40.590Z,317
2024-05-09T10:59:44.155Z,101
2024-05-09T11:05:48.509Z,105
2024-05-09T11:09:50.682Z,78
2024-05-09T11:15:54.697Z,164
2024-05-09T11:19:57.008Z,143
2024-05-09T11:21:58.243Z,325
2024-05-09T11:26:00.943Z,53
2024-05-09T11:30:04.368Z,70
2024-05-09T11:32:04.531Z,109
2024-05-09T11:36:06.537Z,96
2024-05-09T11:42:11.060Z,338
2024-05-09T11:46:13.289Z,329
2024-05-09T11:48:14.066Z,342
2024-05-09T11:52:17.385Z,104
2024-05-09T11:58:21.599Z,315
2024-05-09T12:03:08.066Z,47
2024-05-09T12:09:11.095Z,330
2024-05-09T12:13:13.235Z,155
2024-05-09T12:15:14.801Z,202
2024-05-09T12:19:17.264Z,323
2024-05-09T12:23:19.205Z,245
2024-05-09T12:25:20.240Z,207
2024-05-09T12:29:23.340Z,122
2024-05-09T12:35:26.636Z,326
2024-05-09T12:39:28.918Z,88
2024-05-09T12:41:29.882Z,86
2024-05-09T12:45:31.915Z,79
2024-05-09T12:51:35.265Z,124
2024-05-09T12:55:41.371Z,100
2024-05-09T12:57:38.883Z,149
2024-05-09T13:01:41.410Z,122
2024-05-09T13:05:44.459Z,148
2024-05-09T13:07:45.597Z,99
2024-05-09T13:11:48.213Z,98
2024-05-09T13:15:51.237Z,120
2024-05-09T13:17:52.197Z,353
2024-05-09T13:21:54.131Z,333
2024-05-09T13:23:56.764Z,327
2024-05-09T13:25:56.934Z,342
2024-05-09T13:27:58.182Z,277
2024-05-09T13:34:02.303Z,30
2024-05-09T13:40:07.060Z,359
2024-05-09T13:44:08.792Z,26
2024-05-09T13:50:16.710Z,333
2024-05-09T13:54:14.019Z,111
2024-05-09T13:56:14.875Z,67
2024-05-09T14:00:26.365Z,272
2024-05-09T14:04:20.444Z,101
2024-05-09T14:06:21.168Z,13
2024-05-09T14:10:26.183Z,330
2024-05-09T14:16:28.646Z,343
2024-05-09T14:20:31.848Z,351
2024-05-09T14:22:31.773Z,49
2024-05-09T14:26:34.648Z,325
2024-05-09T14:32:38.015Z,130
2024-05-09T14:38:41.617Z,91
2024-05-09T14:42:43.301Z,96
2024-05-09T14:48:46.955Z,344
2024-05-09T14:52:48.766Z,351
2024-05-09T14:54:59.274Z,318
2024-05-09T14:58:53.688Z,311
2024-05-09T15:02:56.150Z,311
2024-05-09T15:04:57.347Z,337
2024-05-09T15:08:58.909Z,315
2024-05-09T15:15:02.184Z,339
2024-05-09T15:19:05.116Z,137
2024-05-09T15:21:05.970Z,78
2024-05-09T15:25:08.922Z,95
2024-05-09T15:31:13.546Z,307
2024-05-09T15:35:15.554Z,106
2024-05-09T15:37:16.558Z,77
2024-05-09T15:41:19.120Z,100
2024-05-09T15:45:22.205Z,102
2024-05-09T15:47:23.122Z,122
2024-05-09T15:51:25.484Z,307
2024-05-09T15:57:29.224Z,101
2024-05-09T16:01:31.671Z,306
2024-05-09T16:03:32.993Z,30
2024-05-09T16:07:35.590Z,71
2024-05-09T16:13:38.483Z,78
2024-05-09T16:15:39.362Z,79
2024-05-09T16:19:42.306Z,19
2024-05-09T16:23:44.544Z,315
2024-05-09T16:29:48.132Z,144
2024-05-09T16:33:51.550Z,92
2024-05-09T16:35:52.917Z,92
2024-05-09T16:39:55.191Z,345
2024-05-09T16:43:57.061Z,59
2024-05-09T16:45:58.485Z,59
2024-05-09T16:50:01.022Z,59
2024-05-09T16:56:05.656Z,45
2024-05-09T17:00:14.493Z,45
2024-05-09T17:02:10.109Z,45
2024-05-09T17:06:11.776Z,48
2024-05-09T17:12:14.635Z,337
2024-05-09T17:16:17.452Z,337
2024-05-09T17:18:19.161Z,337
2024-05-09T17:22:21.086Z,337
2024-05-09T17:26:24.456Z,81
2024-05-09T17:28:26.379Z,81
2024-05-09T17:32:28.707Z,81
2024-05-09T17:36:32.048Z,81
2024-05-09T17:38:33.464Z,81
2024-05-09T17:42:36.056Z,81
2024-05-09T17:44:37.483Z,81
2024-05-09T17:46:38.904Z,81
2024-05-09T17:48:40.620Z,73
2024-05-09T17:54:44.013Z,335
2024-05-09T17:56:45.858Z,335
2024-05-09T18:00:48.510Z,335
2024-05-09T18:04:51.199Z,335
2024-05-09T18:10:55.426Z,335
2024-05-09T18:14:57.524Z,335
2024-05-09T18:16:58.962Z,335
2024-05-09T18:21:01.993Z,335
2024-05-09T18:25:03.989Z,335
2024-05-09T18:27:05.224Z,335
2024-05-09T18:31:08.824Z,336
2024-05-09T18:37:12.223Z,336
2024-05-09T18:41:14.544Z,336
2024-05-09T18:43:16.272Z,336
2024-05-09T18:47:20.076Z,336
2024-05-09T18:48:01.969Z,336
2024-05-09T18:52:04.186Z,336
2024-05-09T18:54:06.048Z,336
2024-05-09T18:58:08.274Z,336
2024-05-09T19:02:11.291Z,336
2024-05-09T19:04:12.919Z,336
2024-05-09T19:08:15.204Z,336
2024-05-09T19:12:17.489Z,336
2024-05-09T19:14:18.439Z,336
2024-05-09T19:18:21.460Z,336
2024-05-09T19:20:25.388Z,336
2024-05-09T19:22:24.483Z,336
2024-05-09T19:24:25.341Z,336
2024-05-09T19:30:33.941Z,336
2024-05-09T19:32:30.421Z,336
2024-05-09T19:36:33.300Z,336
2024-05-09T19:40:35.970Z,336
2024-05-09T19:46:39.992Z,336
2024-05-09T19:50:43.671Z,336
2024-05-09T19:52:43.506Z,336
2024-05-09T19:56:46.780Z,336
2024-05-09T20:00:49.997Z,336
2024-05-09T20:02:51.429Z,336
2024-05-09T20:06:53.883Z,336
2024-05-09T20:12:57.910Z,336
2024-05-09T20:19:02.303Z,336
2024-05-09T20:23:05.226Z,336
2024-05-09T20:29:09.208Z,336
2024-05-09T20:33:11.944Z,336
2024-05-09T20:35:13.574Z,336
2024-05-09T20:39:16.864Z,336
2024-05-09T20:43:19.669Z,336
2024-05-09T20:45:20.695Z,336
2024-05-09T20:49:23.347Z,336
2024-05-09T20:55:27.882Z,336
2024-05-09T21:01:32.794Z,336
2024-05-09T21:05:35.944Z,336
2024-05-09T21:11:39.559Z,336
2024-05-09T21:15:42.151Z,336
2024-05-09T21:17:43.851Z,336
2024-05-09T21:21:46.894Z,336
2024-05-09T21:25:50.184Z,336
2024-05-09T21:27:52.133Z,336
2024-05-09T21:31:55.096Z,336
2024-05-09T21:37:59.739Z,336
2024-05-09T21:42:01.878Z,336
2024-05-09T21:44:03.426Z,336
2024-05-09T21:48:06.746Z,336
2024-05-09T21:54:10.297Z,337
2024-05-09T21:58:12.861Z,337
2024-05-09T22:00:17.450Z,336
2024-05-09T22:04:17.251Z,337
2024-05-09T22:08:20.333Z,337
2024-05-09T22:10:25.423Z,337
2024-05-09T22:14:23.891Z,337
2024-05-09T22:20:29.386Z,337
2024-05-09T22:26:32.977Z,337
2024-05-09T22:30:37.662Z,337
2024-05-09T22:32:36.871Z,337
2024-05-09T22:36:40.254Z,337
2024-05-09T22:38:42.102Z,337
2024-05-09T22:42:44.469Z,337
2024-05-09T22:46:47.810Z,337
2024-05-09T22:52:53.252Z,337
2024-05-09T22:56:56.312Z,337
2024-05-09T22:58:57.909Z,337
2024-05-09T23:03:01.565Z,337
2024-05-09T23:13:09.066Z,337
2024-05-09T23:15:10.099Z,337
2024-05-09T23:19:12.973Z,337
2024-05-09T23:23:16.142Z,337
2024-05-09T23:25:17.931Z,337
2024-05-09T23:29:20.568Z,337
2024-05-09T23:35:24.190Z,337
2024-05-09T23:39:27.487Z,337
2024-05-09T23:41:28.635Z,337
2024-05-09T23:45:31.652Z,337
2024-05-09T23:51:36.608Z,337
2024-05-09T23:55:39.610Z,337
2024-05-09T23:57:41.024Z,337
